createdAt,value
2018-06-10T00:01:32.949Z,52.3
2018-06-10T00:12:52.904Z,42.4
2018-06-10T00:34:10.646Z,61.0
2018-06-10T00:47:46.659Z,66.3
2018-06-10T00:58:03.797Z,64.6
2018-06-10T01:34:33.127Z,65.6
2018-06-10T01:48:17.767Z,80.9
2018-06-10T01:59:03.244Z,74.1
2018-06-10T02:09:18.247Z,67.2
2018-06-10T02:19:31.714Z,81.8
2018-06-10T02:29:45.955Z,70.4
2018-06-10T02:40:31.821Z,82.5
2018-06-10T02:51:20.776Z,96.5
2018-06-10T03:01:34.501Z,66.9
2018-06-10T03:11:49.140Z,79.2
2018-06-10T03:22:03.201Z,74.6
2018-06-10T03:32:17.354Z,67.3
2018-06-10T03:42:31.698Z,72.8
2018-06-10T03:52:46.759Z,68.0
2018-06-10T04:03:33.103Z,77.9
2018-06-10T04:13:46.895Z,71.7
2018-06-10T04:24:32.862Z,88.4
2018-06-10T04:34:46.815Z,70.7
2018-06-10T04:45:01.105Z,69.6
2018-06-10T04:55:12.327Z,70.8
2018-06-10T05:05:57.442Z,80.6
2018-06-10T05:16:11.242Z,71.8
2018-06-10T05:26:25.671Z,64.5
2018-06-10T05:37:10.563Z,103.6
2018-06-10T05:47:54.931Z,77.1
2018-06-10T05:58:40.050Z,85.4
2018-06-10T06:09:24.916Z,85.5
2018-06-10T06:19:36.840Z,75.4
2018-06-10T06:29:50.985Z,74.2
2018-06-10T06:40:05.224Z,74.3
2018-06-10T06:50:19.904Z,80.7
2018-06-10T07:00:33.867Z,84.9
2018-06-10T07:11:19.502Z,100.0
2018-06-10T07:21:33.755Z,67.2
2018-06-10T07:31:48.065Z,70.0
2018-06-10T07:42:33.818Z,71.5
2018-06-10T07:52:47.672Z,71.7
2018-06-10T08:03:32.253Z,80.4
2018-06-10T08:14:27.624Z,83.0
2018-06-10T08:24:41.745Z,82.0
2018-06-10T08:35:31.061Z,77.5
2018-06-10T08:45:44.961Z,69.4
2018-06-10T08:56:00.165Z,65.0
2018-06-10T09:06:15.040Z,67.8
2018-06-10T09:16:28.751Z,71.0
2018-06-10T09:26:55.323Z,65.0
2018-06-10T09:37:54.954Z,93.4
2018-06-10T09:48:10.313Z,82.8
2018-06-10T09:58:24.237Z,60.3
2018-06-10T10:08:40.889Z,62.0
2018-06-10T10:18:54.974Z,59.0
2018-06-10T10:40:41.356Z,57.2
2018-06-10T10:50:56.246Z,58.6
2018-06-10T11:01:23.283Z,56.9
2018-06-10T11:11:38.334Z,51.9
2018-06-10T11:22:22.894Z,52.7
2018-06-10T11:33:08.532Z,49.2
2018-06-10T11:43:21.726Z,49.4
2018-06-10T11:53:36.035Z,54.6
2018-06-10T12:04:27.038Z,51.9
2018-06-10T12:14:40.855Z,51.9
2018-06-10T12:24:55.466Z,51.4
2018-06-10T12:35:09.494Z,50.5
2018-06-10T12:45:21.720Z,52.3
2018-06-10T12:55:33.783Z,53.7
2018-06-10T13:06:21.544Z,57.4
2018-06-10T13:16:34.085Z,52.1
2018-06-10T13:26:48.348Z,50.2
2018-06-10T13:37:02.372Z,52.2
2018-06-10T13:47:47.192Z,57.3
2018-06-10T13:58:48.965Z,51.5
2018-06-10T14:10:02.784Z,53.0
2018-06-10T14:20:56.213Z,53.6
2018-06-10T14:31:11.480Z,50.9
2018-06-10T14:41:57.606Z,49.6
2018-06-10T14:52:48.948Z,56.0
2018-06-10T15:03:35.731Z,51.0
2018-06-10T15:14:38.209Z,51.8
2018-06-10T15:25:27.630Z,53.5
2018-06-10T15:35:47.305Z,49.5
2018-06-10T15:46:01.492Z,50.8
2018-06-10T15:56:21.495Z,56.7
2018-06-10T16:08:42.285Z,58.8
2018-06-10T16:20:14.527Z,52.2
2018-06-10T16:30:35.987Z,53.0
2018-06-10T16:40:54.017Z,52.4
2018-06-10T16:55:19.507Z,52.3
2018-06-10T17:08:45.951Z,58.3
2018-06-10T17:19:36.202Z,56.5
2018-06-10T17:29:59.716Z,55.0
2018-06-10T17:40:48.232Z,57.0
2018-06-10T17:52:07.048Z,58.0
2018-06-10T18:02:44.657Z,63.0
2018-06-10T18:13:18.160Z,56.9
2018-06-10T18:23:48.013Z,56.3
2018-06-10T19:44:27.624Z,57.2
2018-06-10T19:57:01.897Z,58.3
2018-06-10T20:08:27.629Z,58.3
2018-06-10T20:36:05.568Z,67.9
2018-06-10T20:47:01.863Z,62.5
2018-06-10T20:57:56.229Z,61.1
2018-06-10T21:19:03.202Z,62.3
2018-06-10T21:41:44.448Z,65.7
2018-06-10T21:52:36.953Z,63.3
2018-06-10T22:03:25.901Z,66.6
2018-06-10T22:14:20.993Z,66.0
2018-06-10T22:57:29.095Z,70.5
2018-06-10T23:30:36.830Z,67.5
2018-06-10T23:41:28.800Z,72.6
2018-06-10T23:52:27.797Z,73.1
